createdAt,value
2019-01-08T00:02:58.162Z,2.70
2019-01-08T00:06:02.524Z,3.27
2019-01-08T00:09:07.238Z,2.80
2019-01-08T00:12:11.547Z,3.20
2019-01-08T00:15:15.821Z,3.37
2019-01-08T00:18:20.124Z,4.00
2019-01-08T00:21:24.385Z,5.00
2019-01-08T00:24:28.746Z,3.43
2019-01-08T00:27:33.022Z,3.37
2019-01-08T00:30:37.341Z,3.23
2019-01-08T00:33:41.639Z,4.07
2019-01-08T00:36:45.960Z,3.70
2019-01-08T00:39:50.326Z,3.20
2019-01-08T00:42:55.721Z,3.20
2019-01-08T00:46:00.047Z,3.60
2019-01-08T00:49:04.255Z,3.80
2019-01-08T00:52:08.573Z,3.30
2019-01-08T00:55:12.886Z,4.13
2019-01-08T00:58:17.129Z,3.70
2019-01-08T01:01:21.484Z,3.83
2019-01-08T01:04:25.807Z,3.53
2019-01-08T01:07:30.227Z,3.90
2019-01-08T01:10:34.456Z,4.20
2019-01-08T01:13:41.136Z,3.93
2019-01-08T01:16:45.437Z,4.30
2019-01-08T01:19:49.670Z,4.00
2019-01-08T01:22:53.977Z,3.47
2019-01-08T01:25:58.293Z,4.97
2019-01-08T01:29:02.629Z,5.23
2019-01-08T01:32:06.964Z,4.63
2019-01-08T01:35:11.298Z,4.57
2019-01-08T01:38:16.701Z,5.10
2019-01-08T01:41:20.924Z,4.40
2019-01-08T01:44:25.222Z,4.17
2019-01-08T01:47:29.476Z,4.60
2019-01-08T01:50:33.756Z,3.87
2019-01-08T01:53:38.041Z,5.20
2019-01-08T01:56:42.344Z,4.57
2019-01-08T01:59:46.606Z,4.07
2019-01-08T02:02:50.974Z,4.20
2019-01-08T02:05:55.366Z,3.97
2019-01-08T02:08:59.651Z,3.97
2019-01-08T02:12:03.919Z,3.57
2019-01-08T02:15:08.275Z,3.60
2019-01-08T02:18:15.050Z,4.47
2019-01-08T02:21:19.347Z,3.70
2019-01-08T02:24:23.699Z,3.70
2019-01-08T02:27:27.986Z,3.57
2019-01-08T02:30:32.263Z,3.77
2019-01-08T02:33:36.629Z,3.30
2019-01-08T02:36:40.872Z,3.53
2019-01-08T02:39:45.192Z,3.73
2019-01-08T02:42:49.515Z,3.93
2019-01-08T02:45:53.840Z,4.40
2019-01-08T02:48:58.232Z,3.60
2019-01-08T02:52:02.590Z,3.40
2019-01-08T02:55:06.984Z,4.00
2019-01-08T02:58:11.259Z,3.33
2019-01-08T03:01:15.522Z,3.57
2019-01-08T03:04:19.815Z,3.70
2019-01-08T03:07:24.075Z,4.37
2019-01-08T03:10:28.403Z,3.73
2019-01-08T03:13:32.724Z,3.73
2019-01-08T03:16:37.044Z,3.83
2019-01-08T03:19:41.344Z,3.73
2019-01-08T03:22:45.616Z,3.63
2019-01-08T03:25:49.951Z,3.57
2019-01-08T03:28:54.339Z,4.00
2019-01-08T03:31:58.782Z,3.50
2019-01-08T03:35:03.084Z,3.43
2019-01-08T03:38:07.351Z,3.73
2019-01-08T03:41:11.639Z,2.97
2019-01-08T03:44:15.955Z,3.87
2019-01-08T03:47:20.265Z,2.80
2019-01-08T03:50:24.639Z,3.23
2019-01-08T03:53:28.985Z,2.70
2019-01-08T03:56:33.286Z,3.10
2019-01-08T03:59:41.818Z,3.13
2019-01-08T04:02:43.664Z,3.40
2019-01-08T04:05:47.958Z,3.40
2019-01-08T04:08:52.269Z,3.40
2019-01-08T04:11:56.593Z,2.90
2019-01-08T04:15:00.956Z,3.30
2019-01-08T04:18:05.298Z,2.53
2019-01-08T04:21:09.649Z,4.13
2019-01-08T04:24:13.994Z,3.40
2019-01-08T04:27:18.378Z,3.00
2019-01-08T04:30:22.805Z,3.30
2019-01-08T04:33:27.186Z,4.43
2019-01-08T04:36:31.578Z,3.23
2019-01-08T04:39:35.854Z,3.23
2019-01-08T04:42:40.258Z,2.57
2019-01-08T04:45:44.554Z,3.20
2019-01-08T04:48:48.889Z,3.70
2019-01-08T04:51:53.203Z,3.73
2019-01-08T04:54:57.559Z,3.43
2019-01-08T04:58:01.897Z,3.50
2019-01-08T05:01:06.158Z,2.93
2019-01-08T05:04:10.556Z,3.97
2019-01-08T05:07:14.799Z,3.70
2019-01-08T05:10:19.108Z,2.67
2019-01-08T05:13:23.505Z,3.30
2019-01-08T05:16:27.968Z,3.53
2019-01-08T05:19:32.260Z,2.27
2019-01-08T05:22:36.612Z,2.80
2019-01-08T05:25:40.845Z,2.97
2019-01-08T05:28:45.218Z,2.63
2019-01-08T05:31:49.535Z,2.77
2019-01-08T05:34:53.843Z,2.83
2019-01-08T05:37:58.179Z,2.37
2019-01-08T05:41:02.585Z,3.13
2019-01-08T05:44:06.875Z,2.70
2019-01-08T05:47:11.187Z,3.47
2019-01-08T05:50:15.459Z,2.80
2019-01-08T05:53:19.863Z,2.67
2019-01-08T05:56:24.288Z,2.80
2019-01-08T05:59:28.575Z,2.80
2019-01-08T06:02:32.885Z,3.20
2019-01-08T06:05:37.188Z,3.40
2019-01-08T06:08:41.515Z,3.17
2019-01-08T06:11:45.823Z,2.83
2019-01-08T06:14:50.180Z,2.93
2019-01-08T06:17:54.522Z,2.60
2019-01-08T06:20:58.890Z,3.53
2019-01-08T06:24:03.263Z,3.40
2019-01-08T06:27:07.534Z,2.67
2019-01-08T06:30:11.833Z,2.70
2019-01-08T06:33:16.154Z,2.80
2019-01-08T06:36:20.489Z,3.60
2019-01-08T06:39:24.874Z,4.90
2019-01-08T06:42:29.139Z,3.57
2019-01-08T06:45:33.472Z,3.00
2019-01-08T06:48:37.859Z,2.70
2019-01-08T06:51:42.168Z,3.30
2019-01-08T06:54:46.530Z,2.30
2019-01-08T06:57:50.892Z,2.70
2019-01-08T07:00:55.185Z,3.27
2019-01-08T07:03:59.554Z,2.97
2019-01-08T07:07:03.818Z,2.90
2019-01-08T07:10:08.548Z,2.80
2019-01-08T07:13:12.854Z,3.30
2019-01-08T07:16:17.108Z,3.80
2019-01-08T07:19:21.424Z,4.10
2019-01-08T07:22:25.779Z,3.17
2019-01-08T07:25:30.077Z,3.40
2019-01-08T07:28:34.354Z,3.73
2019-01-08T07:31:38.642Z,3.60
2019-01-08T07:34:42.939Z,3.70
2019-01-08T07:37:47.188Z,2.90
2019-01-08T07:40:51.572Z,4.60
2019-01-08T07:43:55.937Z,2.93
2019-01-08T07:47:00.221Z,3.47
2019-01-08T07:50:04.762Z,3.50
2019-01-08T07:53:09.014Z,3.83
2019-01-08T07:56:13.359Z,3.03
2019-01-08T07:59:17.644Z,3.63
2019-01-08T08:02:21.914Z,3.73
2019-01-08T08:05:26.217Z,3.50
2019-01-08T08:08:30.557Z,3.70
2019-01-08T08:11:34.843Z,3.23
2019-01-08T08:14:39.130Z,3.40
2019-01-08T08:17:43.493Z,3.03
2019-01-08T08:20:47.858Z,3.30
2019-01-08T08:23:52.148Z,2.77
2019-01-08T08:26:56.490Z,3.10
2019-01-08T08:30:00.828Z,2.87
2019-01-08T08:33:05.088Z,3.10
2019-01-08T08:36:09.560Z,3.10
2019-01-08T08:39:13.982Z,3.27
2019-01-08T08:42:18.288Z,3.10
2019-01-08T08:45:22.572Z,2.90
2019-01-08T08:48:26.874Z,3.77
2019-01-08T08:51:31.139Z,2.77
2019-01-08T08:54:35.457Z,2.40
2019-01-08T08:57:39.808Z,3.47
2019-01-08T09:00:44.139Z,2.90
2019-01-08T09:03:48.483Z,3.20
2019-01-08T09:06:52.828Z,2.70
2019-01-08T09:09:57.170Z,2.60
2019-01-08T09:13:01.438Z,2.90
2019-01-08T09:16:05.921Z,2.80
2019-01-08T09:19:10.200Z,2.13
2019-01-08T09:22:14.600Z,3.20
2019-01-08T09:25:18.889Z,2.73
2019-01-08T09:28:23.186Z,2.00
2019-01-08T09:31:27.500Z,2.50
2019-01-08T09:34:31.934Z,2.40
2019-01-08T09:37:36.245Z,2.10
2019-01-08T09:40:40.529Z,2.67
2019-01-08T09:43:44.846Z,2.10
2019-01-08T09:46:49.137Z,2.67
2019-01-08T09:49:53.531Z,2.40
2019-01-08T09:52:57.873Z,2.33
2019-01-08T09:56:02.157Z,2.63
2019-01-08T09:59:06.554Z,3.20
2019-01-08T10:02:10.875Z,3.73
2019-01-08T10:05:15.196Z,2.77
2019-01-08T10:08:19.514Z,2.30
2019-01-08T10:11:23.890Z,2.30
2019-01-08T10:14:28.218Z,2.97
2019-01-08T10:17:32.553Z,2.77
2019-01-08T10:20:36.892Z,2.90
2019-01-08T10:23:41.270Z,2.87
2019-01-08T10:26:45.567Z,2.30
2019-01-08T10:29:49.951Z,2.07
2019-01-08T10:32:54.242Z,2.60
2019-01-08T10:35:58.532Z,4.20
2019-01-08T10:39:02.874Z,2.30
2019-01-08T10:42:07.254Z,2.20
2019-01-08T10:45:11.547Z,2.63
2019-01-08T10:48:15.842Z,2.07
2019-01-08T10:51:20.162Z,2.30
2019-01-08T10:54:24.551Z,2.30
2019-01-08T10:57:28.798Z,2.00
2019-01-08T11:00:33.113Z,1.93
2019-01-08T11:03:37.526Z,2.77
2019-01-08T11:06:41.941Z,2.57
2019-01-08T11:09:46.229Z,2.50
2019-01-08T11:12:50.623Z,3.17
2019-01-08T11:15:54.841Z,2.20
2019-01-08T11:18:59.168Z,3.10
2019-01-08T11:22:03.557Z,2.60
2019-01-08T11:25:07.859Z,3.00
2019-01-08T11:28:12.118Z,3.07
2019-01-08T11:31:16.483Z,3.30
2019-01-08T11:34:20.807Z,2.90
2019-01-08T11:37:25.176Z,3.20
2019-01-08T11:40:29.484Z,3.70
2019-01-08T11:43:33.857Z,4.20
2019-01-08T11:46:38.222Z,3.50
2019-01-08T11:49:42.457Z,3.37
2019-01-08T11:52:47.847Z,3.87
2019-01-08T11:55:52.296Z,4.70
2019-01-08T11:58:56.597Z,4.53
2019-01-08T12:02:01.142Z,4.63
2019-01-08T12:05:05.575Z,4.13
2019-01-08T12:08:09.828Z,4.50
2019-01-08T12:11:14.088Z,4.30
2019-01-08T12:14:18.379Z,4.43
2019-01-08T12:17:22.662Z,4.43
2019-01-08T12:20:27.009Z,4.50
2019-01-08T12:23:31.277Z,5.53
2019-01-08T12:26:35.726Z,3.90
2019-01-08T12:29:39.996Z,4.53
2019-01-08T12:32:44.362Z,3.87
2019-01-08T12:35:48.621Z,5.13
2019-01-08T12:38:52.916Z,4.47
2019-01-08T12:41:57.191Z,5.00
2019-01-08T12:45:01.474Z,4.60
2019-01-08T12:48:06.617Z,4.80
2019-01-08T12:51:11.083Z,4.63
2019-01-08T12:54:15.394Z,4.40
2019-01-08T12:57:19.707Z,5.30
2019-01-08T13:00:24.020Z,5.17
2019-01-08T13:03:28.386Z,6.30
2019-01-08T13:06:32.710Z,4.33
2019-01-08T13:09:37.048Z,5.23
2019-01-08T13:12:41.387Z,4.80
2019-01-08T13:15:45.822Z,4.70
2019-01-08T13:18:50.178Z,4.27
2019-01-08T13:21:54.437Z,4.50
2019-01-08T13:24:58.816Z,3.87
2019-01-08T13:28:03.088Z,4.20
2019-01-08T13:31:07.507Z,4.00
2019-01-08T13:34:11.813Z,4.63
2019-01-08T13:37:16.136Z,4.80
2019-01-08T13:40:20.417Z,3.57
2019-01-08T13:43:24.753Z,3.93
2019-01-08T13:46:29.057Z,4.10
2019-01-08T13:49:33.420Z,3.73
2019-01-08T13:52:37.713Z,4.03
2019-01-08T13:55:42.076Z,4.20
2019-01-08T13:58:46.464Z,4.83
2019-01-08T14:01:50.836Z,4.10
2019-01-08T14:04:55.120Z,5.10
2019-01-08T14:07:59.432Z,5.77
2019-01-08T14:11:03.748Z,5.20
2019-01-08T14:14:08.100Z,3.20
2019-01-08T14:17:12.451Z,3.97
2019-01-08T14:20:16.727Z,3.50
2019-01-08T14:23:21.073Z,3.17
2019-01-08T14:26:25.382Z,4.57
2019-01-08T14:29:29.730Z,3.77
2019-01-08T14:32:40.537Z,4.33
2019-01-08T14:35:40.157Z,3.30
2019-01-08T14:38:44.502Z,4.23
2019-01-08T14:41:48.962Z,3.90
2019-01-08T14:44:53.352Z,3.83
2019-01-08T14:47:57.735Z,3.73
2019-01-08T14:51:02.047Z,2.90
2019-01-08T14:54:06.348Z,4.90
2019-01-08T14:57:10.719Z,4.87
2019-01-08T15:00:14.983Z,3.87
2019-01-08T15:03:19.377Z,3.43
2019-01-08T15:06:23.727Z,3.73
2019-01-08T15:09:28.023Z,3.67
2019-01-08T15:12:32.377Z,3.80
2019-01-08T15:15:36.684Z,3.30
2019-01-08T15:18:41.083Z,4.67
2019-01-08T15:21:45.362Z,3.00
2019-01-08T15:24:49.773Z,3.90
2019-01-08T15:27:54.120Z,4.57
2019-01-08T15:30:58.417Z,3.50
2019-01-08T15:34:02.705Z,4.10
2019-01-08T15:37:07.017Z,4.80
2019-01-08T15:40:11.336Z,4.43
2019-01-08T15:43:15.747Z,3.20
2019-01-08T15:46:20.103Z,4.53
2019-01-08T15:49:24.541Z,3.40
2019-01-08T15:52:28.911Z,4.70
2019-01-08T15:55:33.202Z,4.30
2019-01-08T15:58:37.542Z,4.20
2019-01-08T16:01:41.865Z,3.47
2019-01-08T16:04:46.157Z,3.10
2019-01-08T16:07:50.463Z,4.37
2019-01-08T16:10:57.032Z,3.60
2019-01-08T16:14:01.327Z,2.83
2019-01-08T16:17:05.604Z,3.40
2019-01-08T16:20:09.870Z,4.03
2019-01-08T16:23:14.102Z,3.97
2019-01-08T16:26:18.429Z,3.90
2019-01-08T16:29:22.716Z,3.73
2019-01-08T16:32:27.090Z,4.03
2019-01-08T16:35:31.451Z,6.17
2019-01-08T16:38:35.884Z,5.17
2019-01-08T16:41:40.177Z,5.00
2019-01-08T16:44:45.372Z,4.70
2019-01-08T16:47:49.703Z,4.60
2019-01-08T16:50:54.101Z,4.10
2019-01-08T16:53:58.385Z,4.37
2019-01-08T16:57:02.722Z,5.57
2019-01-08T17:00:08.774Z,4.63
2019-01-08T17:03:13.207Z,5.17
2019-01-08T17:06:17.526Z,5.83
2019-01-08T17:09:21.903Z,6.37
2019-01-08T17:12:26.236Z,4.43
2019-01-08T17:15:30.575Z,6.77
2019-01-08T17:18:35.021Z,4.90
2019-01-08T17:21:39.322Z,4.70
2019-01-08T17:24:43.639Z,4.70
2019-01-08T17:27:47.965Z,4.67
2019-01-08T17:30:52.179Z,3.80
2019-01-08T17:33:56.522Z,4.07
2019-01-08T17:37:00.801Z,3.57
2019-01-08T17:40:05.401Z,3.63
2019-01-08T17:43:09.755Z,4.27
2019-01-08T17:46:14.108Z,3.80
2019-01-08T17:49:18.444Z,4.20
2019-01-08T17:52:22.762Z,4.50
2019-01-08T17:55:27.065Z,3.37
2019-01-08T17:58:39.281Z,3.53
2019-01-08T18:01:56.454Z,3.30
2019-01-08T18:05:00.744Z,3.53
2019-01-08T18:08:05.061Z,5.23
2019-01-08T18:11:09.445Z,4.00
2019-01-08T18:14:13.736Z,4.20
2019-01-08T18:17:18.107Z,4.37
2019-01-08T18:20:22.396Z,3.47
2019-01-08T18:23:26.731Z,3.70
2019-01-08T18:26:31.105Z,4.00
2019-01-08T18:29:35.491Z,4.17
2019-01-08T18:32:39.805Z,5.00
2019-01-08T18:35:44.190Z,4.30
2019-01-08T18:38:48.483Z,5.53
2019-01-08T18:41:52.833Z,4.70
2019-01-08T18:44:57.105Z,4.20
2019-01-08T18:48:03.456Z,4.40
2019-01-08T18:51:07.820Z,5.77
2019-01-08T18:54:12.062Z,5.03
2019-01-08T18:57:16.374Z,4.40
2019-01-08T19:00:20.639Z,4.37
2019-01-08T19:03:24.929Z,4.23
2019-01-08T19:06:29.276Z,6.17
2019-01-08T19:09:43.122Z,4.00
2019-01-08T19:12:47.803Z,4.27
2019-01-08T19:15:52.145Z,4.23
2019-01-08T19:18:56.415Z,4.40
2019-01-08T19:22:00.724Z,4.40
2019-01-08T19:25:05.200Z,4.27
2019-01-08T19:28:09.477Z,3.83
2019-01-08T19:31:13.770Z,4.97
2019-01-08T19:34:18.065Z,4.60
2019-01-08T19:37:22.430Z,4.23
2019-01-08T19:40:26.880Z,3.90
2019-01-08T19:43:31.152Z,4.30
2019-01-08T19:46:35.425Z,5.50
2019-01-08T19:49:39.724Z,5.03
2019-01-08T19:52:44.105Z,5.53
2019-01-08T19:55:48.405Z,5.60
2019-01-08T19:58:52.741Z,4.60
2019-01-08T20:01:57.049Z,6.20
2019-01-08T20:05:01.360Z,4.17
2019-01-08T20:08:05.774Z,4.33
2019-01-08T20:11:10.132Z,5.13
2019-01-08T20:14:14.445Z,4.10
2019-01-08T20:17:18.785Z,3.60
2019-01-08T20:20:23.041Z,3.97
2019-01-08T20:23:27.575Z,3.17
2019-01-08T20:26:31.894Z,2.70
2019-01-08T20:29:36.215Z,2.60
2019-01-08T20:32:40.627Z,2.80
2019-01-08T20:35:44.906Z,2.20
2019-01-08T20:38:49.234Z,3.40
2019-01-08T20:41:53.531Z,3.87
2019-01-08T20:44:57.877Z,2.80
2019-01-08T20:48:02.305Z,3.93
2019-01-08T20:51:06.691Z,3.97
2019-01-08T20:54:11.092Z,3.00
2019-01-08T20:57:15.380Z,3.63
2019-01-08T21:00:19.780Z,3.03
2019-01-08T21:03:24.150Z,2.97
2019-01-08T21:06:28.635Z,3.40
2019-01-08T21:09:33.030Z,3.30
2019-01-08T21:12:37.336Z,3.10
2019-01-08T21:15:41.734Z,3.37
2019-01-08T21:18:46.009Z,2.90
2019-01-08T21:21:50.415Z,2.50
2019-01-08T21:24:54.639Z,2.60
2019-01-08T21:27:59.004Z,2.67
2019-01-08T21:31:03.409Z,3.00
2019-01-08T21:34:07.722Z,2.97
2019-01-08T21:37:12.001Z,3.40
2019-01-08T21:40:16.506Z,3.50
2019-01-08T21:43:20.871Z,3.20
2019-01-08T21:46:25.144Z,2.87
2019-01-08T21:49:29.466Z,2.33
2019-01-08T21:52:33.783Z,2.67
2019-01-08T21:55:38.239Z,2.70
2019-01-08T21:58:42.589Z,3.00
2019-01-08T22:01:46.927Z,2.27
2019-01-08T22:04:53.118Z,2.40
2019-01-08T22:07:57.349Z,3.63
2019-01-08T22:11:01.735Z,2.40
2019-01-08T22:14:06.202Z,2.80
2019-01-08T22:17:10.616Z,2.50
2019-01-08T22:20:14.866Z,2.10
2019-01-08T22:23:19.201Z,2.60
2019-01-08T22:26:23.500Z,2.10
2019-01-08T22:29:27.999Z,2.53
2019-01-08T22:32:32.454Z,2.43
2019-01-08T22:35:37.100Z,2.33
2019-01-08T22:38:41.355Z,2.33
2019-01-08T22:41:45.719Z,2.73
2019-01-08T22:44:50.120Z,2.60
2019-01-08T22:47:54.864Z,3.00
2019-01-08T22:50:59.190Z,3.17
2019-01-08T22:54:03.568Z,2.30
2019-01-08T22:57:08.059Z,2.30
2019-01-08T23:00:47.465Z,2.20
2019-01-08T23:03:51.733Z,2.37
2019-01-08T23:06:56.073Z,2.70
2019-01-08T23:10:00.389Z,2.50
2019-01-08T23:13:04.751Z,2.90
2019-01-08T23:16:09.114Z,2.70
2019-01-08T23:19:13.420Z,2.30
2019-01-08T23:22:17.646Z,2.27
2019-01-08T23:25:22.004Z,2.40
2019-01-08T23:28:26.283Z,2.20
2019-01-08T23:31:32.824Z,2.27
2019-01-08T23:34:37.115Z,2.50
2019-01-08T23:37:41.352Z,2.50
2019-01-08T23:40:45.625Z,2.07
2019-01-08T23:43:49.889Z,2.60
2019-01-08T23:46:54.209Z,2.90
2019-01-08T23:49:58.468Z,2.13
2019-01-08T23:53:10.463Z,3.17
2019-01-08T23:56:14.774Z,2.00
2019-01-08T23:59:19.076Z,2.50
